Time;durP1;ratioP1;P1;durP2;ratioP2;P2;SDS_P1;SDS_P2;PMS_P1;PMS_P2;Temp;Humidity;BMP_temperature;BMP_pressure;BME280_temperature;BME280_humidity;BME280_pressure;Samples;Min_cycle;Max_cycle;Signal;HPM_P1;HPM_P2
2021/03/28 00:01:39;;;;;;;3.93;0.70;;;2.60;99.90;;;;;;5050507;28;20231;-78
2021/03/28 00:04:11;;;;;;;0.80;0.67;;;2.50;99.90;;;;;;5051626;28;20199;-78
2021/03/28 00:06:59;;;;;;;1.20;0.73;;;2.40;99.90;;;;;;5048978;28;20278;-78
2021/03/28 00:09:34;;;;;;;3.37;0.90;;;2.40;99.90;;;;;;5049361;28;20213;-79
2021/03/28 00:12:09;;;;;;;2.47;1.03;;;2.40;99.90;;;;;;5050778;28;20188;-78
2021/03/28 00:14:38;;;;;;;4.00;1.60;;;2.40;99.90;;;;;;5051201;28;20214;-79
2021/03/28 00:17:32;;;;;;;2.03;1.07;;;2.30;99.90;;;;;;5051459;28;20206;-78
2021/03/28 00:20:21;;;;;;;1.00;0.77;;;2.40;99.90;;;;;;5049982;28;20290;-78
2021/03/28 00:23:05;;;;;;;2.13;1.00;;;2.40;99.90;;;;;;5050946;28;20179;-78
2021/03/28 00:25:38;;;;;;;1.30;1.07;;;2.30;99.90;;;;;;5049514;28;20174;-79
2021/03/28 00:28:09;;;;;;;1.20;0.87;;;2.50;99.90;;;;;;5049913;28;20735;-79
2021/03/28 00:30:41;;;;;;;2.50;0.97;;;2.40;99.90;;;;;;5049464;28;20205;-80
2021/03/28 00:33:10;;;;;;;3.10;1.23;;;2.40;99.90;;;;;;5050062;28;20747;-79
2021/03/28 00:35:50;;;;;;;2.10;1.00;;;2.30;99.90;;;;;;5051129;28;20182;-79
2021/03/28 00:38:27;;;;;;;0.80;0.80;;;2.30;99.90;;;;;;5051962;28;20293;-80
2021/03/28 00:41:17;;;;;;;1.90;1.00;;;2.30;99.90;;;;;;5049491;28;20802;-78
2021/03/28 00:44:15;;;;;;;1.57;1.20;;;2.30;99.90;;;;;;5052322;28;20215;-78
2021/03/28 00:46:55;;;;;;;2.20;1.00;;;2.30;99.90;;;;;;5048500;28;20565;-78
2021/03/28 00:49:37;;;;;;;3.83;1.40;;;2.20;99.90;;;;;;5050093;28;20204;-79
2021/03/28 00:52:15;;;;;;;0.97;0.53;;;2.10;99.90;;;;;;5051402;28;20185;-78
2021/03/28 00:54:46;;;;;;;0.87;0.83;;;2.20;99.90;;;;;;5050855;28;20174;-78
2021/03/28 00:57:20;;;;;;;2.77;0.93;;;2.40;99.90;;;;;;5050294;28;20210;-79
2021/03/28 01:00:07;;;;;;;3.80;0.93;;;2.20;99.90;;;;;;5050864;28;20208;-78
2021/03/28 01:02:42;;;;;;;2.40;1.07;;;2.30;99.90;;;;;;5051193;28;20178;-79
2021/03/28 01:05:29;;;;;;;1.50;1.10;;;2.40;99.90;;;;;;5049489;28;20224;-79
2021/03/28 01:08:07;;;;;;;0.60;0.50;;;2.30;99.90;;;;;;5051280;28;20273;-79
2021/03/28 01:10:38;;;;;;;1.83;0.70;;;2.30;99.90;;;;;;5049334;28;20188;-79
2021/03/28 01:13:22;;;;;;;2.03;0.47;;;2.20;99.90;;;;;;5050731;28;20194;-78
2021/03/28 01:16:01;;;;;;;2.67;0.90;;;2.20;99.90;;;;;;5048655;28;20244;-78
2021/03/28 01:18:54;;;;;;;0.47;0.47;;;2.30;99.90;;;;;;5051524;28;20671;-78
2021/03/28 01:21:38;;;;;;;2.57;1.13;;;2.30;99.90;;;;;;5050587;28;21052;-79
2021/03/28 01:24:30;;;;;;;1.13;0.83;;;2.20;99.90;;;;;;5051202;28;20549;-79
2021/03/28 01:27:19;;;;;;;1.67;0.87;;;2.20;99.90;;;;;;5048720;28;20211;-78
2021/03/28 01:30:01;;;;;;;0.97;0.60;;;2.20;99.90;;;;;;5048707;28;20188;-78
2021/03/28 01:32:27;;;;;;;2.50;1.00;;;2.10;99.90;;;;;;5048253;28;20178;-80
2021/03/28 01:34:54;;;;;;;1.30;1.20;;;2.00;99.90;;;;;;5048958;28;20524;-78
2021/03/28 01:37:39;;;;;;;0.80;0.70;;;2.10;99.90;;;;;;5050696;28;20230;-78
2021/03/28 01:40:18;;;;;;;2.50;1.03;;;2.10;99.90;;;;;;5050509;28;20298;-77
2021/03/28 01:43:21;;;;;;;1.53;0.90;;;2.20;99.90;;;;;;5048986;28;20723;-78
2021/03/28 01:46:14;;;;;;;0.70;0.70;;;2.20;99.90;;;;;;5047706;28;20204;-78
2021/03/28 01:49:08;;;;;;;1.03;0.63;;;2.10;99.90;;;;;;5048714;28;20232;-78
2021/03/28 01:51:54;;;;;;;0.87;0.50;;;2.10;99.90;;;;;;5050074;28;20230;-79
2021/03/28 01:54:33;;;;;;;1.23;0.90;;;2.10;99.90;;;;;;5049209;28;20181;-78
2021/03/28 01:57:02;;;;;;;2.00;1.00;;;2.00;99.90;;;;;;5049363;28;20332;-79
2021/03/28 01:59:40;;;;;;;1.23;0.90;;;2.00;99.90;;;;;;5048189;28;20198;-78
2021/03/28 02:02:21;;;;;;;1.13;0.80;;;2.00;99.90;;;;;;5049782;28;20184;-79
2021/03/28 02:05:10;;;;;;;1.83;0.70;;;2.00;99.90;;;;;;5048370;28;20177;-79
2021/03/28 02:07:49;;;;;;;1.33;1.13;;;2.10;99.90;;;;;;5047954;28;20312;-79
2021/03/28 02:10:26;;;;;;;1.60;1.20;;;2.00;99.90;;;;;;5048493;28;20269;-79
2021/03/28 02:13:12;;;;;;;0.47;0.47;;;2.10;99.90;;;;;;5052219;28;20663;-78
2021/03/28 02:16:02;;;;;;;3.97;0.83;;;2.20;99.90;;;;;;5050922;28;20178;-79
2021/03/28 02:18:42;;;;;;;1.43;1.33;;;2.20;99.90;;;;;;5047976;28;20205;-79
2021/03/28 02:21:17;;;;;;;0.83;0.73;;;2.30;99.90;;;;;;5047158;28;20817;-78
2021/03/28 02:23:47;;;;;;;1.63;0.87;;;2.20;99.90;;;;;;5049505;28;20231;-78
2021/03/28 02:26:28;;;;;;;0.70;0.60;;;2.20;99.90;;;;;;5047168;28;20205;-79
2021/03/28 02:29:08;;;;;;;1.23;0.77;;;2.30;99.90;;;;;;5047372;28;20186;-78
2021/03/28 02:31:55;;;;;;;1.33;0.70;;;2.30;99.90;;;;;;5046866;28;20178;-79
2021/03/28 02:35:00;;;;;;;1.23;0.90;;;2.40;99.90;;;;;;5048385;28;20178;-79
2021/03/28 02:37:36;;;;;;;1.07;0.70;;;2.60;99.90;;;;;;5035892;28;21077;-79
2021/03/28 02:40:26;;;;;;;0.73;0.50;;;2.60;99.90;;;;;;5048176;28;20301;-78
2021/03/28 02:43:21;;;;;;;0.90;0.77;;;2.60;99.90;;;;;;5048035;28;20202;-78
2021/03/28 02:46:01;;;;;;;3.60;0.83;;;2.70;99.90;;;;;;5047633;28;20202;-79
2021/03/28 02:48:44;;;;;;;1.53;0.67;;;3.00;99.90;;;;;;5048258;28;20549;-79
2021/03/28 02:51:38;;;;;;;3.63;0.70;;;3.10;99.90;;;;;;5046808;28;20178;-78
2021/03/28 02:54:30;;;;;;;0.53;0.53;;;3.20;99.90;;;;;;5046983;28;20202;-79
2021/03/28 02:57:04;;;;;;;0.70;0.60;;;3.10;99.90;;;;;;5048022;28;20213;-79
2021/03/28 03:00:15;;;;;;;1.43;0.87;;;3.00;99.90;;;;;;5046262;28;20206;-79
2021/03/28 03:03:10;;;;;;;1.23;0.60;;;2.90;99.90;;;;;;5046706;28;20242;-78
2021/03/28 03:05:54;;;;;;;0.40;0.40;;;2.90;99.90;;;;;;5047783;28;20217;-78
2021/03/28 03:08:31;;;;;;;0.77;0.60;;;2.90;99.90;;;;;;5048524;28;20174;-79
2021/03/28 03:11:30;;;;;;;1.83;1.07;;;3.00;99.90;;;;;;5048842;28;20262;-79
2021/03/28 03:14:30;;;;;;;2.13;0.83;;;2.90;99.90;;;;;;5048011;28;20186;-78
2021/03/28 03:17:26;;;;;;;0.90;0.70;;;2.90;99.90;;;;;;5047602;28;20243;-79
2021/03/28 03:20:13;;;;;;;0.57;0.53;;;2.90;99.90;;;;;;5042634;28;20208;-79
2021/03/28 03:23:16;;;;;;;1.10;0.73;;;3.10;99.90;;;;;;5045658;28;20628;-79
2021/03/28 03:26:28;;;;;;;1.50;0.60;;;3.30;99.90;;;;;;5046565;28;20178;-78
2021/03/28 03:29:35;;;;;;;1.83;1.20;;;3.30;99.90;;;;;;5048297;28;20184;-79
2021/03/28 03:32:37;;;;;;;2.13;0.70;;;3.20;99.90;;;;;;5047864;28;20186;-78
2021/03/28 03:35:13;;;;;;;0.40;0.40;;;3.20;99.90;;;;;;5047174;28;20216;-80
2021/03/28 03:38:00;;;;;;;1.23;1.03;;;3.10;99.90;;;;;;5048661;28;20206;-79
2021/03/28 03:41:00;;;;;;;0.63;0.57;;;3.10;99.90;;;;;;5044609;28;20288;-78
2021/03/28 03:43:34;;;;;;;1.10;0.50;;;3.10;99.90;;;;;;5043832;28;20236;-79
2021/03/28 03:46:07;;;;;;;0.73;0.60;;;3.10;99.90;;;;;;5046615;28;20212;-78
2021/03/28 03:49:12;;;;;;;0.93;0.40;;;3.00;99.90;;;;;;5047577;28;20178;-78
2021/03/28 03:52:18;;;;;;;1.77;1.00;;;3.00;99.90;;;;;;5044345;28;20652;-79
2021/03/28 03:54:59;;;;;;;3.87;1.23;;;2.90;99.90;;;;;;5044764;28;20208;-78
2021/03/28 03:57:34;;;;;;;2.60;1.13;;;2.90;99.90;;;;;;5046406;28;20388;-78
2021/03/28 04:00:15;;;;;;;0.87;0.80;;;2.90;99.90;;;;;;5046863;28;20213;-78
2021/03/28 04:02:47;;;;;;;1.17;0.90;;;2.80;99.90;;;;;;5048479;28;20592;-77
2021/03/28 04:05:23;;;;;;;4.03;1.60;;;2.80;99.90;;;;;;5049949;28;20262;-78
2021/03/28 04:08:03;;;;;;;2.57;1.10;;;2.70;99.90;;;;;;5050152;28;20206;-78
2021/03/28 04:10:58;;;;;;;0.73;0.50;;;2.60;99.90;;;;;;5049705;28;20245;-79
2021/03/28 04:13:46;;;;;;;3.53;1.20;;;2.60;99.90;;;;;;5046473;28;20170;-77
2021/03/28 04:16:44;;;;;;;1.60;0.90;;;2.60;99.90;;;;;;5048261;28;20614;-78
2021/03/28 04:19:51;;;;;;;0.77;0.60;;;2.60;99.90;;;;;;5058360;28;20237;-78
2021/03/28 04:22:44;;;;;;;2.07;0.73;;;2.60;99.90;;;;;;5039508;28;20241;-78
2021/03/28 04:25:20;;;;;;;0.57;0.57;;;2.60;99.90;;;;;;5049548;28;20217;-78
2021/03/28 04:28:09;;;;;;;2.57;0.80;;;2.70;99.90;;;;;;5049167;28;20201;-78
2021/03/28 04:30:37;;;;;;;3.10;0.67;;;2.80;99.90;;;;;;5048501;28;20186;-78
2021/03/28 04:33:22;;;;;;;0.80;0.57;;;2.70;99.90;;;;;;5049186;28;20197;-78
2021/03/28 04:36:11;;;;;;;2.10;0.93;;;2.80;99.90;;;;;;5046637;28;20301;-78
2021/03/28 04:39:06;;;;;;;0.50;0.50;;;2.80;99.90;;;;;;5047807;28;20267;-78
2021/03/28 04:41:55;;;;;;;0.97;0.50;;;2.90;99.90;;;;;;5038617;28;20324;-79
2021/03/28 04:44:24;;;;;;;1.17;1.00;;;2.90;99.90;;;;;;5048425;28;20194;-78
2021/03/28 04:47:17;;;;;;;0.90;0.63;;;3.00;99.90;;;;;;5046929;28;20225;-78
2021/03/28 04:50:18;;;;;;;0.40;0.40;;;3.00;99.90;;;;;;5048969;28;20216;-78
2021/03/28 04:53:02;;;;;;;2.70;0.70;;;3.10;99.90;;;;;;5047499;28;20186;-79
2021/03/28 04:55:38;;;;;;;0.70;0.57;;;3.10;99.90;;;;;;5048321;28;20186;-79
2021/03/28 04:58:16;;;;;;;1.80;0.60;;;3.00;99.90;;;;;;5048532;28;20184;-78
2021/03/28 05:00:53;;;;;;;1.33;0.80;;;3.10;99.90;;;;;;5046093;28;20717;-78
2021/03/28 05:03:47;;;;;;;0.40;0.30;;;3.00;99.90;;;;;;5046994;28;20173;-78
2021/03/28 05:06:50;;;;;;;1.93;0.73;;;3.00;99.90;;;;;;5048020;28;20312;-78
2021/03/28 05:09:53;;;;;;;0.70;0.67;;;3.00;99.90;;;;;;5049053;28;20194;-78
2021/03/28 05:13:00;;;;;;;1.30;0.53;;;3.10;99.90;;;;;;5046641;28;20273;-78
2021/03/28 05:15:43;;;;;;;1.27;0.80;;;3.00;99.90;;;;;;5035965;28;20194;-78
2021/03/28 05:18:27;;;;;;;3.10;0.60;;;3.00;99.90;;;;;;5047383;28;20281;-78
2021/03/28 05:21:20;;;;;;;0.93;0.77;;;2.90;99.90;;;;;;5047225;28;20550;-78
2021/03/28 05:24:07;;;;;;;0.63;0.63;;;2.90;99.90;;;;;;5048315;28;20181;-78
2021/03/28 05:27:10;;;;;;;0.60;0.50;;;3.00;99.90;;;;;;5046217;28;20198;-78
2021/03/28 05:29:38;;;;;;;2.03;0.90;;;3.10;99.90;;;;;;5047299;28;20186;-78
2021/03/28 05:32:41;;;;;;;1.13;1.03;;;3.10;99.90;;;;;;5047820;28;20244;-79
2021/03/28 05:35:36;;;;;;;2.30;0.73;;;3.30;99.90;;;;;;5046054;28;20198;-78
2021/03/28 05:38:23;;;;;;;2.13;1.13;;;3.30;99.90;;;;;;5046319;28;20886;-79
2021/03/28 05:41:17;;;;;;;0.50;0.40;;;3.50;99.90;;;;;;5047017;28;20203;-78
2021/03/28 05:43:57;;;;;;;1.27;0.73;;;3.50;99.90;;;;;;5047740;28;20175;-78
2021/03/28 05:47:09;;;;;;;0.93;0.63;;;3.70;99.90;;;;;;5044956;28;20218;-77
2021/03/28 05:50:12;;;;;;;0.73;0.40;;;3.80;99.90;;;;;;5064169;28;20185;-78
2021/03/28 05:53:07;;;;;;;0.53;0.53;;;3.90;99.90;;;;;;5045501;28;20252;-79
2021/03/28 05:56:04;;;;;;;1.07;0.50;;;4.00;99.90;;;;;;5046705;28;20209;-78
2021/03/28 05:58:44;;;;;;;0.67;0.50;;;4.10;99.90;;;;;;5047639;28;20670;-78
2021/03/28 06:01:48;;;;;;;0.50;0.50;;;4.30;99.90;;;;;;5045063;28;20840;-78
2021/03/28 06:04:44;;;;;;;0.50;0.50;;;4.30;99.90;;;;;;5061483;28;20205;-78
2021/03/28 06:07:59;;;;;;;1.67;1.00;;;4.50;99.90;;;;;;5046197;28;20218;-78
2021/03/28 06:10:54;;;;;;;2.43;0.93;;;4.60;99.90;;;;;;5046753;28;20178;-78
2021/03/28 06:13:44;;;;;;;0.43;0.43;;;4.80;99.90;;;;;;5047120;28;20300;-78
2021/03/28 06:16:30;;;;;;;3.23;0.80;;;4.90;99.90;;;;;;5045176;28;20654;-78
2021/03/28 06:19:12;;;;;;;1.07;0.80;;;5.00;99.90;;;;;;5042544;28;20206;-78
2021/03/28 06:21:48;;;;;;;1.10;0.60;;;5.10;99.90;;;;;;5037395;28;20236;-78
2021/03/28 06:24:19;;;;;;;2.67;1.00;;;5.20;99.90;;;;;;5043170;28;20197;-78
2021/03/28 06:27:16;;;;;;;1.53;0.80;;;5.30;99.90;;;;;;5040669;28;20209;-79
2021/03/28 06:29:44;;;;;;;0.63;0.60;;;5.30;99.90;;;;;;5043004;28;20198;-78
2021/03/28 06:32:21;;;;;;;0.83;0.67;;;5.30;99.90;;;;;;5040679;28;20588;-78
2021/03/28 06:35:07;;;;;;;0.93;0.77;;;5.30;99.90;;;;;;5042843;28;20178;-78
2021/03/28 06:37:42;;;;;;;1.20;1.00;;;5.30;99.90;;;;;;5030078;28;20209;-78
2021/03/28 06:40:49;;;;;;;0.73;0.70;;;5.40;99.90;;;;;;5045013;28;20231;-78
2021/03/28 06:43:25;;;;;;;1.27;1.03;;;5.40;99.90;;;;;;5044769;28;20236;-79
2021/03/28 06:45:53;;;;;;;2.00;1.50;;;5.40;99.90;;;;;;5045283;28;20255;-78
2021/03/28 06:48:47;;;;;;;1.13;0.87;;;5.50;99.90;;;;;;5045101;28;20256;-78
2021/03/28 06:51:31;;;;;;;1.83;1.13;;;5.60;99.90;;;;;;5045058;28;20174;-78
2021/03/28 06:54:18;;;;;;;5.00;0.97;;;5.70;99.90;;;;;;5045140;28;20256;-78
2021/03/28 06:56:50;;;;;;;1.13;1.03;;;5.80;99.90;;;;;;5045459;28;20197;-78
2021/03/28 06:59:53;;;;;;;1.43;1.03;;;5.90;99.90;;;;;;5045030;28;20256;-78
2021/03/28 07:02:30;;;;;;;0.70;0.60;;;6.10;99.90;;;;;;5045299;28;20646;-77
2021/03/28 07:04:56;;;;;;;3.13;0.93;;;6.20;99.90;;;;;;5043136;28;20679;-78
2021/03/28 07:07:59;;;;;;;1.73;0.77;;;6.30;99.90;;;;;;5043720;28;20281;-78
2021/03/28 07:10:34;;;;;;;0.83;0.50;;;6.50;99.90;;;;;;5040251;28;20178;-78
2021/03/28 07:13:36;;;;;;;0.63;0.53;;;6.60;99.90;;;;;;5044988;28;20178;-78
2021/03/28 07:16:40;;;;;;;1.57;0.63;;;6.70;99.90;;;;;;5043687;28;20746;-77
2021/03/28 07:19:20;;;;;;;1.33;0.60;;;6.80;99.90;;;;;;5045344;28;20208;-78
2021/03/28 07:21:53;;;;;;;2.60;1.03;;;6.70;99.90;;;;;;5042897;28;21630;-78
2021/03/28 07:24:39;;;;;;;1.17;0.67;;;6.60;99.90;;;;;;5036059;28;20680;-79
2021/03/28 07:27:40;;;;;;;1.30;0.60;;;6.70;99.90;;;;;;5041219;28;20337;-78
2021/03/28 07:30:24;;;;;;;1.20;0.83;;;6.70;99.90;;;;;;5040270;28;20194;-78
2021/03/28 07:33:22;;;;;;;1.30;0.93;;;6.80;99.90;;;;;;5044579;28;20721;-78
2021/03/28 07:36:11;;;;;;;1.37;0.57;;;7.00;99.90;;;;;;5044044;28;20672;-78
2021/03/28 07:38:54;;;;;;;2.73;0.73;;;7.30;99.90;;;;;;5046433;28;20206;-78
2021/03/28 07:41:23;;;;;;;3.30;1.00;;;7.60;99.90;;;;;;5048526;28;20182;-78
2021/03/28 07:44:32;;;;;;;4.80;1.03;;;7.80;99.90;;;;;;5049228;28;20181;-78
2021/03/28 07:47:15;;;;;;;2.23;0.70;;;8.00;99.90;;;;;;5047710;28;20225;-77
2021/03/28 07:49:46;;;;;;;1.50;0.80;;;8.30;99.90;;;;;;5049137;28;20175;-78
2021/03/28 07:52:12;;;;;;;2.67;1.37;;;8.30;99.90;;;;;;5048511;28;20184;-78
2021/03/28 07:55:09;;;;;;;2.27;1.07;;;8.40;99.90;;;;;;5046833;28;20178;-78
2021/03/28 07:58:05;;;;;;;1.10;0.67;;;8.80;99.90;;;;;;5046127;28;20626;-75
2021/03/28 08:01:10;;;;;;;4.13;0.70;;;8.90;99.90;;;;;;5047210;28;20206;-78
2021/03/28 08:03:58;;;;;;;2.23;0.80;;;9.10;99.90;;;;;;5043884;28;20193;-78
2021/03/28 08:06:42;;;;;;;0.50;0.50;;;9.00;99.90;;;;;;5046750;28;20190;-77
2021/03/28 08:09:32;;;;;;;0.57;0.57;;;8.90;99.90;;;;;;5046615;28;20603;-78
2021/03/28 08:12:22;;;;;;;0.57;0.57;;;8.80;99.90;;;;;;5047157;28;20186;-77
2021/03/28 08:15:09;;;;;;;2.00;0.90;;;8.80;99.90;;;;;;5047339;28;20265;-78
2021/03/28 08:17:41;;;;;;;0.73;0.40;;;8.80;99.90;;;;;;5047772;28;20206;-78
2021/03/28 08:20:45;;;;;;;1.67;0.73;;;8.80;99.90;;;;;;5046921;28;20210;-78
2021/03/28 08:23:49;;;;;;;1.33;0.70;;;8.90;99.90;;;;;;5047790;28;20638;-77
2021/03/28 08:26:40;;;;;;;1.63;1.10;;;8.90;99.90;;;;;;5030556;28;20213;-78
2021/03/28 08:29:11;;;;;;;1.23;0.63;;;8.80;99.90;;;;;;5048108;28;20185;-78
2021/03/28 08:31:49;;;;;;;0.80;0.60;;;8.90;99.90;;;;;;5047863;28;20196;-78
2021/03/28 08:34:37;;;;;;;0.30;0.30;;;8.90;99.90;;;;;;5047922;28;20174;-79
2021/03/28 08:37:05;;;;;;;1.20;0.87;;;9.00;99.90;;;;;;5046117;28;20197;-78
2021/03/28 08:39:49;;;;;;;1.07;0.67;;;8.90;99.90;;;;;;5047824;28;20256;-79
2021/03/28 08:42:36;;;;;;;1.03;0.50;;;9.00;99.90;;;;;;5046092;28;20209;-78
2021/03/28 08:45:23;;;;;;;0.77;0.70;;;9.00;99.90;;;;;;5047960;28;20266;-78
2021/03/28 08:48:21;;;;;;;0.43;0.43;;;9.10;99.90;;;;;;5046224;28;20231;-78
2021/03/28 08:51:07;;;;;;;1.90;0.70;;;9.00;99.90;;;;;;5046141;28;20232;-78
2021/03/28 08:54:10;;;;;;;0.83;0.40;;;8.90;99.90;;;;;;5045748;28;20178;-78
2021/03/28 08:57:02;;;;;;;0.80;0.80;;;9.00;99.90;;;;;;5045383;28;20231;-78
2021/03/28 08:59:52;;;;;;;0.53;0.40;;;9.10;99.90;;;;;;5042866;28;20219;-78
2021/03/28 09:02:45;;;;;;;0.90;0.70;;;9.10;99.90;;;;;;5041949;28;20191;-78
2021/03/28 09:05:39;;;;;;;1.83;0.70;;;9.30;99.90;;;;;;5046922;28;20208;-78
2021/03/28 09:08:19;;;;;;;2.00;0.67;;;9.50;99.90;;;;;;5046888;28;20186;-78
2021/03/28 09:11:22;;;;;;;1.27;0.70;;;9.60;99.90;;;;;;5046852;28;20177;-78
2021/03/28 09:14:12;;;;;;;3.93;0.90;;;9.80;99.90;;;;;;5045533;28;20171;-77
2021/03/28 09:16:45;;;;;;;2.87;1.30;;;9.70;99.90;;;;;;5046641;28;20194;-78
2021/03/28 09:19:45;;;;;;;3.00;2.40;;;9.80;99.90;;;;;;5045756;28;20579;-77
2021/03/28 09:22:33;;;;;;;2.10;0.63;;;9.90;99.90;;;;;;5046320;28;20312;-77
2021/03/28 09:25:22;;;;;;;0.43;0.43;;;9.90;99.90;;;;;;5045782;28;20232;-78
2021/03/28 09:28:07;;;;;;;3.90;3.57;;;10.00;99.90;;;;;;5044552;28;20202;-78
2021/03/28 09:30:56;;;;;;;0.73;0.67;;;10.40;99.90;;;;;;5045617;28;20925;-77
2021/03/28 09:33:50;;;;;;;4.13;1.20;;;10.40;99.90;;;;;;5044538;28;20190;-77
2021/03/28 09:36:38;;;;;;;4.20;0.97;;;10.50;99.90;;;;;;5045823;28;20225;-76
2021/03/28 09:39:27;;;;;;;0.90;0.50;;;10.30;99.90;;;;;;5046522;28;20206;-78
2021/03/28 09:42:30;;;;;;;1.00;0.90;;;10.20;99.90;;;;;;5045989;28;20174;-78
2021/03/28 09:45:33;;;;;;;0.70;0.70;;;10.20;99.90;;;;;;5047497;28;20277;-77
2021/03/28 09:48:37;;;;;;;0.77;0.77;;;10.30;99.90;;;;;;5046175;28;20605;-76
2021/03/28 09:51:06;;;;;;;1.17;0.53;;;10.20;99.90;;;;;;5043071;28;20182;-76
2021/03/28 09:54:10;;;;;;;0.67;0.47;;;10.50;99.90;;;;;;5044825;28;20189;-78
2021/03/28 09:56:54;;;;;;;0.40;0.40;;;10.40;99.90;;;;;;5042573;28;20210;-76
2021/03/28 09:59:23;;;;;;;0.43;0.43;;;10.60;99.90;;;;;;5039140;28;20198;-76
2021/03/28 10:02:13;;;;;;;1.30;1.07;;;10.80;99.90;;;;;;5045063;28;20181;-78
2021/03/28 10:05:00;;;;;;;0.87;0.70;;;11.00;99.90;;;;;;5044603;28;20220;-77
2021/03/28 10:07:41;;;;;;;1.53;0.77;;;11.30;99.90;;;;;;5043761;28;20248;-76
2021/03/28 10:10:39;;;;;;;0.60;0.60;;;11.40;99.90;;;;;;5044356;28;20182;-77
2021/03/28 10:13:35;;;;;;;2.20;0.67;;;11.40;99.90;;;;;;5046233;28;20201;-76
2021/03/28 10:16:07;;;;;;;2.53;1.27;;;11.50;99.90;;;;;;5045674;28;20213;-76
2021/03/28 10:19:05;;;;;;;1.20;0.60;;;11.30;99.90;;;;;;5043964;28;20305;-76
2021/03/28 10:21:36;;;;;;;4.70;1.30;;;11.10;99.90;;;;;;5044756;28;20175;-76
2021/03/28 10:24:17;;;;;;;1.17;0.87;;;11.10;99.90;;;;;;5045815;28;20177;-77
2021/03/28 10:27:14;;;;;;;0.43;0.43;;;11.00;99.90;;;;;;5043852;28;20292;-78
2021/03/28 10:30:22;;;;;;;0.67;0.50;;;11.20;99.90;;;;;;5045817;28;20228;-77
2021/03/28 10:33:12;;;;;;;0.90;0.50;;;11.30;99.90;;;;;;5053104;28;20193;-77
2021/03/28 10:36:07;;;;;;;2.53;0.90;;;11.10;99.90;;;;;;5043014;28;20232;-77
2021/03/28 10:38:56;;;;;;;0.77;0.70;;;10.90;99.90;;;;;;5040249;28;20547;-76
2021/03/28 10:41:58;;;;;;;1.03;0.57;;;11.00;99.90;;;;;;5040253;28;20182;-77
2021/03/28 10:44:47;;;;;;;0.50;0.40;;;10.90;99.90;;;;;;5042805;28;20870;-76
2021/03/28 10:47:50;;;;;;;1.43;0.60;;;10.70;99.90;;;;;;5042248;28;20282;-75
2021/03/28 10:50:34;;;;;;;2.77;0.63;;;10.60;99.90;;;;;;5041296;28;20236;-75
2021/03/28 10:53:30;;;;;;;4.50;0.80;;;10.70;99.90;;;;;;5042320;28;20190;-76
2021/03/28 10:56:26;;;;;;;1.13;0.70;;;10.70;99.90;;;;;;5041977;28;20212;-78
2021/03/28 10:59:31;;;;;;;1.00;0.70;;;10.80;99.90;;;;;;5037293;28;20655;-76
2021/03/28 11:02:18;;;;;;;0.73;0.50;;;11.00;99.90;;;;;;5041238;28;20539;-77
2021/03/28 11:05:08;;;;;;;0.40;0.27;;;11.20;99.90;;;;;;5041455;28;21230;-77
2021/03/28 11:07:58;;;;;;;2.77;1.20;;;11.20;99.90;;;;;;5041626;28;20706;-78
2021/03/28 11:10:41;;;;;;;1.57;0.60;;;11.10;99.90;;;;;;5040564;28;20178;-77
2021/03/28 11:13:34;;;;;;;2.40;0.50;;;11.20;99.90;;;;;;5040580;28;20190;-78
2021/03/28 11:16:29;;;;;;;1.67;0.97;;;11.30;99.90;;;;;;5040221;28;20209;-79
2021/03/28 11:19:16;;;;;;;2.00;0.43;;;11.50;99.90;;;;;;5042342;28;20679;-78
2021/03/28 11:22:07;;;;;;;1.93;0.90;;;11.70;99.90;;;;;;5041905;28;20717;-79
2021/03/28 11:24:59;;;;;;;1.13;0.60;;;11.90;99.90;;;;;;5041692;28;20179;-78
2021/03/28 11:27:42;;;;;;;1.13;0.97;;;12.20;99.90;;;;;;5039406;28;20210;-78
2021/03/28 11:30:36;;;;;;;1.80;0.53;;;12.30;99.90;;;;;;5041961;28;20193;-77
2021/03/28 11:33:22;;;;;;;0.40;0.40;;;12.30;99.90;;;;;;5041728;28;20212;-79
2021/03/28 11:36:02;;;;;;;1.80;0.80;;;12.50;99.90;;;;;;5041348;28;20233;-78
2021/03/28 11:38:43;;;;;;;1.42;1.00;;;12.80;99.90;;;;;;5040950;28;20643;-78
2021/03/28 11:41:11;;;;;;;0.85;0.47;;;13.10;99.90;;;;;;5041713;28;20183;-77
2021/03/28 11:43:45;;;;;;;2.50;0.90;;;13.40;99.90;;;;;;5041785;28;20198;-79
2021/03/28 11:46:14;;;;;;;0.63;0.60;;;13.30;99.90;;;;;;5040245;28;20643;-79
2021/03/28 11:48:52;;;;;;;1.43;0.67;;;12.90;99.90;;;;;;5041287;28;20491;-77
2021/03/28 11:51:29;;;;;;;1.40;0.60;;;12.80;99.90;;;;;;5041131;28;20208;-78
2021/03/28 11:54:09;;;;;;;2.58;0.93;;;12.80;99.90;;;;;;5042364;28;20185;-78
2021/03/28 11:56:57;;;;;;;1.30;0.77;;;12.90;99.90;;;;;;5034337;28;20212;-78
2021/03/28 11:59:23;;;;;;;0.88;0.60;;;12.90;99.90;;;;;;5042335;28;20208;-78
2021/03/28 12:01:54;;;;;;;2.73;0.90;;;13.00;99.90;;;;;;5041479;28;20178;-78
2021/03/28 12:04:37;;;;;;;1.97;1.50;;;13.10;99.90;;;;;;5041974;28;20677;-79
2021/03/28 12:07:22;;;;;;;1.67;1.10;;;13.00;99.90;;;;;;5042414;28;20236;-78
2021/03/28 12:09:59;;;;;;;0.70;0.70;;;13.20;99.90;;;;;;5043494;28;20182;-76
2021/03/28 12:12:47;;;;;;;1.33;1.10;;;13.20;99.90;;;;;;5043737;28;20700;-76
2021/03/28 12:15:44;;;;;;;2.10;0.77;;;13.10;99.90;;;;;;5044501;28;20207;-75
2021/03/28 12:18:26;;;;;;;2.33;1.13;;;13.10;99.90;;;;;;5044138;28;20186;-77
2021/03/28 12:21:07;;;;;;;1.65;0.88;;;13.50;99.90;;;;;;5043255;28;20174;-78
2021/03/28 12:23:32;;;;;;;0.80;0.80;;;13.60;99.90;;;;;;5042775;28;20191;-77
2021/03/28 12:26:06;;;;;;;0.80;0.75;;;13.70;99.90;;;;;;5047818;28;20218;-78
2021/03/28 12:28:53;;;;;;;1.33;0.82;;;13.80;99.90;;;;;;5047417;28;20261;-78
2021/03/28 12:31:37;;;;;;;0.93;0.70;;;14.00;99.90;;;;;;5045658;28;20178;-78
2021/03/28 12:34:27;;;;;;;2.10;0.70;;;14.10;99.90;;;;;;5047232;28;20186;-78
2021/03/28 12:37:08;;;;;;;1.23;0.90;;;14.00;99.90;;;;;;5062311;28;20202;-78
2021/03/28 12:39:45;;;;;;;0.80;0.80;;;13.50;99.90;;;;;;5045429;28;20208;-79
2021/03/28 12:42:29;;;;;;;2.42;1.15;;;13.70;99.90;;;;;;5046943;28;20174;-78
2021/03/28 12:45:06;;;;;;;1.35;1.25;;;13.80;99.90;;;;;;5047607;28;20236;-78
2021/03/28 12:47:54;;;;;;;2.42;1.05;;;13.90;99.90;;;;;;5046219;28;20217;-78
2021/03/28 12:50:43;;;;;;;1.67;0.50;;;13.80;99.90;;;;;;5045227;28;20943;-78
2021/03/28 12:53:13;;;;;;;0.98;0.63;;;13.80;99.90;;;;;;5046734;28;20668;-78
2021/03/28 12:55:44;;;;;;;2.90;1.05;;;13.70;99.90;;;;;;5046027;28;20278;-78
2021/03/28 12:58:10;;;;;;;1.42;0.55;;;13.30;99.90;;;;;;5046036;28;20556;-77
2021/03/28 13:01:02;;;;;;;0.88;0.70;;;13.30;99.90;;;;;;5046256;28;20225;-78
2021/03/28 13:03:48;;;;;;;1.23;0.70;;;13.20;99.90;;;;;;5045297;28;20189;-78
2021/03/28 13:06:42;;;;;;;0.85;0.80;;;13.40;99.90;;;;;;5044774;28;20198;-78
2021/03/28 13:09:10;;;;;;;2.03;1.20;;;13.60;99.90;;;;;;5046583;28;21140;-77
2021/03/28 13:11:38;;;;;;;0.90;0.75;;;13.60;99.90;;;;;;5044607;28;20183;-78
2021/03/28 13:14:07;;;;;;;2.35;0.80;;;13.70;99.90;;;;;;5046600;28;20209;-77
2021/03/28 13:16:36;;;;;;;0.93;0.82;;;13.60;99.90;;;;;;5043874;28;20202;-78
2021/03/28 13:19:04;;;;;;;1.17;0.80;;;13.50;99.90;;;;;;5046440;28;20202;-76
2021/03/28 13:21:38;;;;;;;1.38;0.90;;;13.40;99.90;;;;;;5045484;28;20224;-77
2021/03/28 13:24:20;;;;;;;3.03;0.98;;;13.30;99.90;;;;;;5050487;28;20185;-77
2021/03/28 13:27:00;;;;;;;2.03;0.87;;;13.20;99.90;;;;;;5045643;28;20229;-78
2021/03/28 13:29:36;;;;;;;5.15;1.65;;;13.30;99.90;;;;;;5044201;28;20315;-77
2021/03/28 13:32:24;;;;;;;0.70;0.70;;;13.50;99.90;;;;;;5042787;28;20182;-78
2021/03/28 13:35:08;;;;;;;0.88;0.70;;;13.50;99.90;;;;;;5045834;28;20178;-77
2021/03/28 13:37:49;;;;;;;3.15;0.95;;;13.20;99.90;;;;;;5043406;28;20205;-77
2021/03/28 13:40:15;;;;;;;0.82;0.80;;;13.30;99.90;;;;;;5043546;28;20247;-77
2021/03/28 13:42:48;;;;;;;11.32;1.48;;;13.30;99.90;;;;;;5044225;28;20183;-78
2021/03/28 13:45:17;;;;;;;5.25;1.23;;;13.40;99.90;;;;;;5045244;28;20666;-78
2021/03/28 13:47:52;;;;;;;1.35;0.98;;;13.40;99.90;;;;;;5043957;28;20489;-78
2021/03/28 13:50:29;;;;;;;1.67;0.70;;;13.20;99.90;;;;;;5043964;28;20197;-78
2021/03/28 13:52:57;;;;;;;1.00;0.77;;;13.30;99.90;;;;;;5044035;28;20185;-78
2021/03/28 13:56:00;;;;;;;1.92;0.90;;;13.50;99.90;;;;;;5045236;28;20182;-78
2021/03/28 13:58:30;;;;;;;2.28;1.00;;;13.60;99.90;;;;;;5044133;28;20188;-77
2021/03/28 14:01:20;;;;;;;1.30;0.98;;;13.50;99.90;;;;;;5044414;28;20186;-78
2021/03/28 14:03:47;;;;;;;1.63;0.90;;;13.60;99.90;;;;;;5045765;28;20182;-78
2021/03/28 14:06:29;;;;;;;2.63;0.90;;;13.70;99.90;;;;;;5043692;28;20197;-78
2021/03/28 14:09:18;;;;;;;2.40;1.45;;;13.60;99.90;;;;;;5044290;28;20186;-78
2021/03/28 14:11:46;;;;;;;1.08;0.90;;;13.50;99.90;;;;;;5049415;28;20604;-78
2021/03/28 14:14:21;;;;;;;2.17;1.05;;;13.60;99.90;;;;;;5043855;28;20189;-77
2021/03/28 14:16:48;;;;;;;2.50;0.95;;;13.50;99.90;;;;;;5045114;28;20202;-78
2021/03/28 14:19:32;;;;;;;0.55;0.55;;;13.50;99.90;;;;;;5045152;28;20241;-78
2021/03/28 14:22:22;;;;;;;1.05;0.73;;;13.40;99.90;;;;;;5043488;28;20182;-78
2021/03/28 14:24:56;;;;;;;1.83;1.00;;;13.40;99.90;;;;;;5044920;28;20902;-78
2021/03/28 14:27:32;;;;;;;0.95;0.70;;;13.50;99.90;;;;;;5044971;28;20232;-78